ZLXY/XIY METAR and TAF weather

Enter ICAO airport designator
Station Type Date Time Source
ZLXY METAR 2019/10/15 09:00 UTC NOAA

ZLXY 150900Z 05007MPS 010V070 4000 -RA BR FEW006 SCT010 OVC040 09/09 Q1026 NOSIG


Station Type Date Time Source
ZLXY Decoded METAR 2019/10/15 09:00 UTC NOAA

Xian/Xianyang, China (ZLXY) 34-26N 108-45E
Oct 15, 2019 - 05:00 AM EDT / 2019.10.15 0900 UTC
Wind: from the NE (050 degrees) at 16 MPH (14 KT) (direction variable):0
Visibility: 2 mile(s):0
Sky conditions: overcast
Weather: light rain; mist
Temperature: 48 F (9 C)
Dew Point: 48 F (9 C)
Relative Humidity: 100%
Pressure (altimeter): 30.30 in. Hg (1026 hPa)
ob: ZLXY 150900Z 05007MPS 010V070 4000 -RA BR FEW006 SCT010 OVC040 09/09 Q1026 NOSIG
cycle: 9

Station Type Date Time Source
ZLXY TAF 2019/10/15 06:03 UTC NOAA

TAF ZLXY 150323Z 1506/1606 06005G10MPS 3000 -RA BR FEW033 TX14/1506Z TN07/1521Z
BECMG 1519/1520 2800 BR
BECMG 1600/1601 24003MPS 3000 BR

Example: see airport list